createdAt,value
2022-12-11T00:01:00.069Z,90.40
2022-12-11T00:03:27.988Z,101.88
2022-12-11T00:05:55.475Z,101.65
2022-12-11T00:08:22.908Z,112.70
2022-12-11T00:10:50.624Z,118.95
2022-12-11T00:13:17.924Z,118.07
2022-12-11T00:15:45.360Z,127.72
2022-12-11T00:18:14.331Z,123.13
2022-12-11T00:20:42.235Z,120.05
2022-12-11T00:23:09.446Z,124.03
2022-12-11T00:25:44.562Z,126.55
2022-12-11T00:28:21.548Z,127.82
2022-12-11T00:30:48.854Z,124.40
2022-12-11T00:33:16.734Z,127.50
2022-12-11T00:35:47.667Z,144.82
2022-12-11T00:38:20.746Z,154.30
2022-12-11T00:40:49.663Z,155.65
2022-12-11T00:43:17.093Z,163.43
2022-12-11T00:45:46.688Z,159.00
2022-12-11T00:48:14.172Z,158.38
2022-12-11T00:50:42.731Z,186.45
2022-12-11T00:53:10.174Z,153.05
2022-12-11T00:55:39.833Z,135.85
2022-12-11T00:58:08.075Z,125.90
2022-12-11T01:00:35.943Z,121.32
2022-12-11T01:03:03.927Z,131.45
2022-12-11T01:05:31.784Z,119.65
2022-12-11T01:07:59.838Z,115.97
2022-12-11T01:10:27.587Z,118.88
2022-12-11T01:13:04.317Z,120.90
2022-12-11T01:15:41.952Z,114.97
2022-12-11T01:18:15.108Z,111.13
2022-12-11T01:20:44.060Z,99.75
2022-12-11T01:23:14.270Z,97.00
2022-12-11T01:25:42.805Z,90.38
2022-12-11T01:28:11.199Z,86.57
2022-12-11T01:30:38.592Z,84.88
2022-12-11T01:33:05.995Z,77.43
2022-12-11T01:35:33.504Z,79.40
2022-12-11T01:38:01.122Z,70.45
2022-12-11T01:40:28.352Z,74.13
2022-12-11T01:42:56.474Z,65.15
2022-12-11T01:45:27.274Z,70.07
2022-12-11T01:48:00.860Z,68.95
2022-12-11T01:50:29.975Z,71.47
2022-12-11T01:52:58.033Z,67.57
2022-12-11T01:55:25.393Z,62.42
2022-12-11T01:57:53.219Z,64.10
2022-12-11T02:00:21.676Z,65.70
2022-12-11T02:02:49.396Z,61.05
2022-12-11T02:05:17.131Z,60.63
2022-12-11T02:07:49.687Z,65.35
2022-12-11T02:10:17.640Z,55.87
2022-12-11T02:13:02.886Z,62.42
2022-12-11T02:15:50.095Z,58.05
2022-12-11T02:18:43.403Z,54.00
2022-12-11T02:21:25.093Z,52.75
2022-12-11T02:24:11.371Z,50.47
2022-12-11T02:26:55.777Z,51.05
2022-12-11T02:29:46.723Z,49.47
2022-12-11T02:32:34.456Z,50.17
2022-12-11T02:35:21.581Z,50.08
2022-12-11T02:37:54.108Z,52.88
2022-12-11T02:40:28.531Z,52.70
2022-12-11T02:42:58.325Z,53.35
2022-12-11T02:45:27.906Z,55.00
2022-12-11T02:47:59.235Z,50.83
2022-12-11T02:50:28.547Z,54.22
2022-12-11T02:52:57.959Z,51.15
2022-12-11T02:55:29.076Z,52.17
2022-12-11T02:58:22.962Z,47.70
2022-12-11T03:00:51.646Z,41.78
2022-12-11T03:03:19.110Z,45.53
2022-12-11T03:05:46.777Z,43.55
2022-12-11T03:08:17.803Z,41.17
2022-12-11T03:10:46.407Z,47.17
2022-12-11T03:13:18.975Z,50.35
2022-12-11T03:15:55.380Z,49.30
2022-12-11T03:18:41.687Z,50.42
2022-12-11T03:21:21.079Z,45.97
2022-12-11T03:24:03.354Z,46.85
2022-12-11T03:26:33.244Z,46.78
2022-12-11T03:29:11.804Z,44.17
2022-12-11T03:31:47.272Z,41.88
2022-12-11T03:34:37.560Z,40.53
2022-12-11T03:37:06.609Z,44.65
2022-12-11T03:39:38.860Z,38.92
2022-12-11T03:42:11.143Z,39.83
2022-12-11T03:44:38.998Z,38.20
2022-12-11T03:47:09.266Z,40.28
2022-12-11T03:49:43.915Z,38.97
2022-12-11T03:52:13.286Z,41.50
2022-12-11T03:54:44.011Z,45.85
2022-12-11T03:57:16.697Z,43.90
2022-12-11T03:59:44.635Z,40.13
2022-12-11T04:02:12.650Z,41.38
2022-12-11T04:04:43.579Z,38.45
2022-12-11T04:07:10.880Z,41.60
2022-12-11T04:09:38.651Z,43.95
2022-12-11T04:12:06.322Z,44.67
2022-12-11T04:14:52.078Z,41.75
2022-12-11T04:17:39.811Z,41.45
2022-12-11T04:20:26.429Z,41.00
2022-12-11T04:23:12.645Z,38.42
2022-12-11T04:25:40.073Z,42.33
2022-12-11T04:28:07.353Z,36.80
2022-12-11T04:30:35.179Z,40.97
2022-12-11T04:33:02.788Z,40.50
2022-12-11T04:35:30.322Z,38.50
2022-12-11T04:37:57.756Z,39.53
2022-12-11T04:40:25.089Z,32.88
2022-12-11T04:42:52.574Z,37.90
2022-12-11T04:45:20.068Z,37.72
2022-12-11T04:47:47.630Z,39.15
2022-12-11T04:50:16.611Z,42.13
2022-12-11T04:52:45.261Z,35.45
2022-12-11T04:55:13.860Z,38.13
2022-12-11T04:57:42.049Z,41.05
2022-12-11T05:00:15.222Z,37.63
2022-12-11T05:02:43.568Z,39.92
2022-12-11T05:05:13.409Z,34.13
2022-12-11T05:07:41.320Z,35.00
2022-12-11T05:10:09.466Z,38.15
2022-12-11T05:12:36.974Z,37.53
2022-12-11T05:15:04.470Z,38.00
2022-12-11T05:17:31.862Z,33.80
2022-12-11T05:19:59.150Z,33.22
2022-12-11T05:22:26.645Z,38.20
2022-12-11T05:24:54.138Z,35.75
2022-12-11T05:27:21.405Z,34.45
2022-12-11T05:29:48.824Z,34.17
2022-12-11T05:32:16.788Z,32.53
2022-12-11T05:34:44.308Z,36.22
2022-12-11T05:37:11.769Z,36.60
2022-12-11T05:39:39.746Z,33.00
2022-12-11T05:42:07.010Z,34.97
2022-12-11T05:44:34.217Z,37.65
2022-12-11T05:47:02.041Z,36.75
2022-12-11T05:49:31.116Z,35.15
2022-12-11T05:51:58.693Z,36.28
2022-12-11T05:54:25.967Z,35.65
2022-12-11T05:56:53.482Z,34.25
2022-12-11T05:59:20.833Z,35.30
2022-12-11T06:01:48.769Z,32.50
2022-12-11T06:04:16.460Z,34.63
2022-12-11T06:06:46.721Z,34.42
2022-12-11T06:09:21.467Z,34.08
2022-12-11T06:11:50.100Z,31.70
2022-12-11T06:14:17.868Z,30.73
2022-12-11T06:16:45.421Z,32.47
2022-12-11T06:19:18.647Z,34.58
2022-12-11T06:21:46.933Z,34.92
2022-12-11T06:24:14.380Z,34.30
2022-12-11T06:26:42.050Z,33.80
2022-12-11T06:29:12.965Z,33.72
2022-12-11T06:31:41.015Z,31.92
2022-12-11T06:34:09.449Z,31.58
2022-12-11T06:36:37.125Z,34.17
2022-12-11T06:39:05.082Z,29.95
2022-12-11T06:41:32.518Z,32.88
2022-12-11T06:44:00.202Z,34.30
2022-12-11T06:46:27.852Z,34.63
2022-12-11T06:48:55.337Z,33.25
2022-12-11T06:51:23.956Z,35.78
2022-12-11T06:53:56.853Z,35.60
2022-12-11T06:56:25.686Z,34.88
2022-12-11T06:58:55.477Z,34.90
2022-12-11T07:01:28.661Z,33.47
2022-12-11T07:03:57.757Z,37.70
2022-12-11T07:06:28.322Z,34.97
2022-12-11T07:08:57.068Z,33.92
2022-12-11T07:11:24.675Z,36.92
2022-12-11T07:13:52.942Z,35.83
2022-12-11T07:16:20.515Z,41.33
2022-12-11T07:18:50.847Z,38.75
2022-12-11T07:21:19.869Z,34.30
2022-12-11T07:23:49.114Z,37.38
2022-12-11T07:26:21.907Z,37.20
2022-12-11T07:28:49.837Z,38.10
2022-12-11T07:31:23.554Z,37.78
2022-12-11T07:33:55.569Z,33.90
2022-12-11T07:36:24.183Z,39.97
2022-12-11T07:38:51.703Z,33.50
2022-12-11T07:41:19.302Z,37.72
2022-12-11T07:43:54.101Z,37.03
2022-12-11T07:46:24.186Z,35.45
2022-12-11T07:48:53.135Z,36.90
2022-12-11T07:51:29.241Z,39.17
2022-12-11T07:53:59.913Z,36.92
2022-12-11T07:56:28.613Z,36.50
2022-12-11T07:58:56.667Z,38.28
2022-12-11T08:01:26.840Z,33.05
2022-12-11T08:03:55.506Z,34.85
2022-12-11T08:06:28.940Z,37.63
2022-12-11T08:11:25.818Z,32.47
2022-12-11T08:13:55.339Z,37.80
2022-12-11T08:16:23.646Z,32.97
2022-12-11T08:18:51.914Z,37.28
2022-12-11T08:21:22.169Z,34.63
2022-12-11T08:23:50.735Z,33.17
2022-12-11T08:26:27.634Z,36.17
2022-12-11T08:28:55.868Z,36.85
2022-12-11T08:31:24.028Z,35.15
2022-12-11T08:33:53.226Z,38.83
2022-12-11T08:36:22.701Z,37.42
2022-12-11T08:38:50.739Z,36.05
2022-12-11T08:41:24.683Z,36.03
2022-12-11T08:43:56.702Z,36.17
2022-12-11T08:46:27.342Z,35.03
2022-12-11T08:48:55.822Z,38.47
2022-12-11T08:51:25.472Z,35.53
2022-12-11T08:54:01.823Z,33.42
2022-12-11T08:56:30.404Z,35.40
2022-12-11T08:59:01.790Z,36.00
2022-12-11T09:01:29.843Z,35.35
2022-12-11T09:03:58.735Z,37.58
2022-12-11T09:06:29.565Z,42.92
2022-12-11T09:09:00.342Z,37.05
2022-12-11T09:11:31.377Z,38.80
2022-12-11T09:14:05.201Z,39.63
2022-12-11T09:16:40.956Z,38.22
2022-12-11T09:19:15.790Z,38.30
2022-12-11T09:21:44.603Z,37.25
2022-12-11T09:24:13.772Z,35.65
2022-12-11T09:26:42.086Z,34.33
2022-12-11T09:29:10.932Z,37.38
2022-12-11T09:31:39.461Z,35.38
2022-12-11T09:34:12.261Z,37.83
2022-12-11T09:36:41.055Z,36.57
2022-12-11T09:39:09.802Z,36.53
2022-12-11T09:41:38.668Z,35.58
2022-12-11T09:44:11.889Z,36.10
2022-12-11T09:46:40.936Z,34.35
2022-12-11T09:49:21.393Z,37.78
2022-12-11T09:51:59.134Z,37.10
2022-12-11T09:54:27.655Z,34.05
2022-12-11T09:56:54.724Z,36.60
2022-12-11T09:59:42.299Z,37.63
2022-12-11T10:02:24.771Z,37.00
2022-12-11T10:05:27.313Z,34.72
2022-12-11T10:08:21.959Z,32.67
2022-12-11T10:11:06.166Z,32.95
2022-12-11T10:14:01.082Z,33.22
2022-12-11T10:16:28.542Z,37.00
2022-12-11T10:18:56.533Z,35.72
2022-12-11T10:21:24.557Z,32.75
2022-12-11T10:23:58.989Z,34.33
2022-12-11T10:26:28.691Z,31.17
2022-12-11T10:29:00.895Z,35.80
2022-12-11T10:31:53.787Z,35.35
2022-12-11T10:34:44.604Z,36.05
2022-12-11T10:37:12.125Z,37.55
2022-12-11T10:39:39.237Z,33.35
2022-12-11T10:42:18.773Z,37.33
2022-12-11T10:45:04.204Z,33.95
2022-12-11T10:47:33.757Z,31.48
2022-12-11T10:50:02.793Z,34.25
2022-12-11T10:52:39.597Z,34.22
2022-12-11T10:55:28.167Z,34.97
2022-12-11T10:58:03.355Z,32.88
2022-12-11T11:00:42.672Z,34.88
2022-12-11T11:03:27.738Z,33.80
2022-12-11T11:06:17.926Z,33.90
2022-12-11T11:08:48.054Z,32.65
2022-12-11T11:11:39.884Z,33.47
2022-12-11T11:14:21.821Z,28.75
2022-12-11T11:16:51.844Z,32.88
2022-12-11T11:19:24.303Z,30.27
2022-12-11T11:21:55.605Z,37.13
2022-12-11T11:24:36.013Z,31.45
2022-12-11T11:27:30.748Z,31.52
2022-12-11T11:30:05.626Z,30.42
2022-12-11T11:32:40.653Z,30.40
2022-12-11T11:35:15.073Z,31.13
2022-12-11T11:37:54.330Z,33.05
2022-12-11T11:40:32.121Z,29.25
2022-12-11T11:43:41.101Z,33.30
2022-12-11T11:46:17.030Z,35.85
2022-12-11T11:49:32.917Z,34.58
2022-12-11T11:52:15.632Z,32.70
2022-12-11T11:54:55.596Z,29.67
2022-12-11T11:57:47.281Z,31.15
2022-12-11T12:00:33.380Z,29.88
2022-12-11T12:03:16.274Z,30.35
2022-12-11T12:06:05.506Z,27.52
2022-12-11T12:08:51.639Z,28.45
2022-12-11T12:11:35.015Z,30.05
2022-12-11T12:14:43.718Z,27.80
2022-12-11T12:17:18.075Z,31.77
2022-12-11T12:20:24.785Z,27.88
2022-12-11T12:23:08.475Z,27.88
2022-12-11T12:25:46.170Z,28.33
2022-12-11T12:28:38.747Z,27.88
2022-12-11T12:31:36.758Z,25.33
2022-12-11T12:34:27.838Z,27.70
2022-12-11T12:37:07.299Z,25.95
2022-12-11T12:39:57.017Z,24.80
2022-12-11T12:42:49.123Z,24.27
2022-12-11T12:45:17.200Z,25.50
2022-12-11T12:47:53.193Z,24.40
2022-12-11T12:50:25.789Z,26.52
2022-12-11T12:52:56.929Z,22.58
2022-12-11T12:55:33.291Z,25.67
2022-12-11T12:58:07.324Z,25.95
2022-12-11T13:00:42.177Z,22.05
2022-12-11T13:03:16.491Z,26.05
2022-12-11T13:05:56.381Z,24.27
2022-12-11T13:08:38.477Z,21.52
2022-12-11T13:11:11.738Z,21.98
2022-12-11T13:14:02.477Z,20.60
2022-12-11T13:16:39.599Z,24.73
2022-12-11T13:19:28.552Z,23.63
2022-12-11T13:22:16.535Z,20.70
2022-12-11T13:25:02.470Z,22.85
2022-12-11T13:27:31.658Z,23.88
2022-12-11T13:30:22.857Z,25.75
2022-12-11T13:32:57.917Z,22.30
2022-12-11T13:35:26.013Z,24.27
2022-12-11T13:37:57.364Z,21.98
2022-12-11T13:40:28.634Z,23.73
2022-12-11T13:43:08.057Z,24.35
2022-12-11T13:45:51.408Z,22.00
2022-12-11T13:48:38.262Z,23.23
2022-12-11T13:51:18.933Z,24.15
2022-12-11T13:53:47.470Z,22.05
2022-12-11T13:56:20.974Z,22.40
2022-12-11T13:58:49.751Z,24.45
2022-12-11T14:01:31.406Z,20.50
2022-12-11T14:04:16.638Z,21.05
2022-12-11T14:06:44.372Z,22.05
2022-12-11T14:09:23.950Z,21.83
2022-12-11T14:11:56.748Z,19.58
2022-12-11T14:14:44.181Z,21.42
2022-12-11T14:17:15.672Z,20.40
2022-12-11T14:19:48.767Z,22.00
2022-12-11T14:22:23.241Z,23.00
2022-12-11T14:24:53.269Z,21.75
2022-12-11T14:27:24.368Z,19.95
2022-12-11T14:29:52.215Z,20.45
2022-12-11T14:32:43.616Z,19.38
2022-12-11T14:35:27.320Z,20.23
2022-12-11T14:40:29.887Z,21.02
2022-12-11T14:43:03.198Z,18.65
2022-12-11T14:45:45.886Z,19.58
2022-12-11T14:48:45.404Z,20.38
2022-12-11T14:51:18.922Z,17.80
2022-12-11T14:53:49.448Z,20.17
2022-12-11T14:56:26.295Z,20.98
2022-12-11T14:58:59.253Z,18.20
2022-12-11T15:01:36.847Z,20.55
2022-12-11T15:04:23.375Z,19.13
2022-12-11T15:06:53.612Z,19.80
2022-12-11T15:09:37.460Z,16.73
2022-12-11T15:15:08.779Z,24.50
2022-12-11T15:17:38.188Z,27.30
2022-12-11T15:20:25.652Z,36.33
2022-12-11T15:25:25.803Z,21.50
2022-12-11T15:27:59.122Z,23.30
2022-12-11T15:30:30.064Z,24.10
2022-12-11T15:33:11.223Z,21.15
2022-12-11T15:35:41.687Z,19.23
2022-12-11T15:38:31.223Z,19.27
2022-12-11T15:40:59.531Z,19.58
2022-12-11T15:43:28.480Z,22.50
2022-12-11T15:45:57.514Z,30.92
2022-12-11T15:48:25.381Z,25.33
2022-12-11T15:50:53.239Z,18.65
2022-12-11T15:53:23.458Z,21.55
2022-12-11T15:55:52.551Z,27.17
2022-12-11T15:58:22.367Z,25.30
2022-12-11T16:00:49.997Z,24.30
2022-12-11T16:03:22.899Z,28.02
2022-12-11T16:05:54.084Z,25.95
2022-12-11T16:08:28.209Z,28.50
2022-12-11T16:10:56.741Z,23.33
2022-12-11T16:13:24.462Z,24.20
2022-12-11T16:15:55.407Z,24.67
2022-12-11T16:18:24.305Z,25.15
2022-12-11T16:20:53.017Z,22.67
2022-12-11T16:23:20.784Z,22.92
2022-12-11T16:25:48.508Z,23.50
2022-12-11T16:28:18.775Z,23.50
2022-12-11T16:30:46.952Z,27.17
2022-12-11T16:33:14.688Z,25.50
2022-12-11T16:35:43.722Z,26.55
2022-12-11T16:38:12.501Z,23.83
2022-12-11T16:40:40.942Z,22.27
2022-12-11T16:43:14.730Z,26.23
2022-12-11T16:45:47.276Z,38.90
2022-12-11T16:48:15.538Z,44.55
2022-12-11T16:50:42.928Z,37.03
2022-12-11T16:53:14.084Z,27.98
2022-12-11T16:58:16.708Z,23.80
2022-12-11T17:00:44.861Z,25.30
2022-12-11T17:03:12.686Z,20.38
2022-12-11T17:05:42.574Z,22.65
2022-12-11T17:08:10.699Z,24.23
2022-12-11T17:10:42.239Z,21.77
2022-12-11T17:13:09.813Z,20.67
2022-12-11T17:15:41.758Z,21.67
2022-12-11T17:18:13.365Z,22.40
2022-12-11T17:20:45.331Z,23.77
2022-12-11T17:23:13.974Z,20.33
2022-12-11T17:25:43.486Z,22.08
2022-12-11T17:28:12.855Z,35.15
2022-12-11T17:30:43.387Z,109.45
2022-12-11T17:33:12.119Z,193.60
2022-12-11T17:35:39.974Z,195.50
2022-12-11T17:38:07.750Z,130.13
2022-12-11T17:40:36.097Z,52.17
2022-12-11T17:43:07.308Z,33.58
2022-12-11T17:45:35.077Z,35.38
2022-12-11T17:48:03.075Z,29.25
2022-12-11T17:50:30.962Z,21.25
2022-12-11T17:53:00.657Z,31.88
2022-12-11T17:55:28.409Z,54.28
2022-12-11T17:57:56.086Z,52.40
2022-12-11T18:00:25.414Z,37.42
2022-12-11T18:02:55.539Z,31.92
2022-12-11T18:05:23.553Z,24.10
2022-12-11T18:07:55.981Z,30.27
2022-12-11T18:10:25.273Z,40.63
2022-12-11T18:12:53.239Z,33.45
2022-12-11T18:15:21.162Z,40.10
2022-12-11T18:17:52.051Z,34.00
2022-12-11T18:20:20.092Z,38.10
2022-12-11T18:22:47.544Z,42.70
2022-12-11T18:25:17.928Z,40.55
2022-12-11T18:27:46.075Z,38.55
2022-12-11T18:30:15.401Z,40.17
2022-12-11T18:32:43.775Z,38.45
2022-12-11T18:35:12.656Z,39.28
2022-12-11T18:37:42.614Z,37.70
2022-12-11T18:40:12.887Z,36.67
2022-12-11T18:42:40.684Z,44.63
2022-12-11T18:45:10.494Z,42.70
2022-12-11T18:47:39.459Z,56.08
2022-12-11T18:50:08.306Z,62.45
2022-12-11T18:52:36.546Z,74.43
2022-12-11T18:55:05.009Z,86.57
2022-12-11T18:57:33.724Z,85.03
2022-12-11T19:00:07.805Z,87.95
2022-12-11T19:02:36.517Z,80.20
2022-12-11T19:05:04.294Z,62.42
2022-12-11T19:07:32.028Z,57.30
2022-12-11T19:10:02.057Z,57.15
2022-12-11T19:12:29.534Z,54.17
2022-12-11T19:14:57.818Z,82.50
2022-12-11T19:17:25.366Z,105.15
2022-12-11T19:19:53.254Z,106.30
2022-12-11T19:22:20.774Z,74.60
2022-12-11T19:24:48.130Z,60.92
2022-12-11T19:27:15.617Z,60.50
2022-12-11T19:29:43.536Z,80.70
2022-12-11T19:32:11.024Z,65.78
2022-12-11T19:34:39.339Z,67.68
2022-12-11T19:37:07.154Z,79.80
2022-12-11T19:39:35.088Z,95.90
2022-12-11T19:42:02.726Z,104.97
2022-12-11T19:44:29.983Z,104.45
2022-12-11T19:46:57.463Z,96.50
2022-12-11T19:49:25.546Z,89.82
2022-12-11T19:51:53.212Z,84.75
2022-12-11T19:54:20.849Z,82.93
2022-12-11T19:56:48.383Z,78.45
2022-12-11T19:59:17.353Z,81.07
2022-12-11T20:01:48.390Z,82.28
2022-12-11T20:04:17.376Z,89.22
2022-12-11T20:06:46.661Z,109.55
2022-12-11T20:09:14.730Z,82.85
2022-12-11T20:11:47.833Z,70.05
2022-12-11T20:14:24.725Z,64.63
2022-12-11T20:17:10.898Z,68.13
2022-12-11T20:19:40.430Z,77.07
2022-12-11T20:22:08.607Z,69.72
2022-12-11T20:24:36.796Z,44.13
2022-12-11T20:27:05.090Z,39.92
2022-12-11T20:29:32.608Z,40.80
2022-12-11T20:32:00.779Z,39.65
2022-12-11T20:34:28.490Z,42.65
2022-12-11T20:36:57.227Z,38.15
2022-12-11T20:39:24.888Z,41.90
2022-12-11T20:41:52.642Z,38.70
2022-12-11T20:44:20.339Z,45.53
2022-12-11T20:46:47.785Z,83.03
2022-12-11T20:49:15.270Z,140.60
2022-12-11T20:51:52.018Z,116.55
2022-12-11T20:54:19.555Z,82.78
2022-12-11T20:56:47.371Z,79.80
2022-12-11T20:59:15.415Z,83.38
2022-12-11T21:01:43.480Z,82.40
2022-12-11T21:04:11.300Z,91.18
2022-12-11T21:06:41.082Z,82.75
2022-12-11T21:09:12.944Z,66.78
2022-12-11T21:11:40.831Z,53.55
2022-12-11T21:14:08.473Z,57.05
2022-12-11T21:16:38.122Z,55.20
2022-12-11T21:19:06.511Z,56.35
2022-12-11T21:21:37.250Z,56.88
2022-12-11T21:24:05.671Z,52.45
2022-12-11T21:26:34.255Z,57.63
2022-12-11T21:29:01.477Z,56.28
2022-12-11T21:31:29.788Z,52.97
2022-12-11T21:33:57.809Z,60.67
2022-12-11T21:36:25.184Z,64.25
2022-12-11T21:38:52.487Z,60.55
2022-12-11T21:41:22.842Z,56.45
2022-12-11T21:44:56.693Z,54.78
2022-12-11T21:46:40.064Z,44.00
2022-12-11T21:49:08.724Z,45.78
2022-12-11T21:51:43.914Z,46.40
2022-12-11T21:54:19.229Z,43.22
2022-12-11T21:56:47.497Z,45.53
2022-12-11T21:59:15.133Z,65.20
2022-12-11T22:01:46.381Z,89.72
2022-12-11T22:04:14.904Z,79.70
2022-12-11T22:06:44.034Z,82.10
2022-12-11T22:09:13.000Z,65.18
2022-12-11T22:11:45.675Z,71.53
2022-12-11T22:14:18.326Z,66.87
2022-12-11T22:16:46.858Z,118.23
2022-12-11T22:19:14.498Z,106.68
2022-12-11T22:21:41.953Z,85.47
2022-12-11T22:24:09.477Z,89.22
2022-12-11T22:29:19.481Z,104.20
2022-12-11T22:31:48.780Z,84.45
2022-12-11T22:34:16.352Z,71.80
2022-12-11T22:37:03.767Z,65.97
2022-12-11T22:39:37.528Z,64.45
2022-12-11T22:42:37.418Z,74.05
2022-12-11T22:45:07.679Z,71.82
2022-12-11T22:47:35.565Z,82.30
2022-12-11T22:50:04.711Z,82.50
2022-12-11T22:52:33.124Z,90.38
2022-12-11T22:55:00.442Z,91.28
2022-12-11T22:57:28.517Z,84.35
2022-12-11T22:59:57.594Z,81.35
2022-12-11T23:02:25.386Z,85.28
2022-12-11T23:04:52.623Z,78.57
2022-12-11T23:07:19.927Z,82.90
2022-12-11T23:09:47.163Z,82.20
2022-12-11T23:12:14.417Z,69.20
2022-12-11T23:14:41.638Z,70.25
2022-12-11T23:17:08.901Z,75.68
2022-12-11T23:19:36.715Z,72.32
2022-12-11T23:22:04.961Z,75.40
2022-12-11T23:24:32.384Z,72.53
2022-12-11T23:27:13.091Z,80.85
2022-12-11T23:29:47.933Z,65.75
2022-12-11T23:32:18.842Z,65.65
2022-12-11T23:35:14.109Z,84.25
2022-12-11T23:37:44.916Z,83.50
2022-12-11T23:40:15.092Z,61.40
2022-12-11T23:42:42.836Z,55.22
2022-12-11T23:45:12.463Z,59.58
2022-12-11T23:47:41.652Z,87.03
2022-12-11T23:50:10.379Z,86.47
2022-12-11T23:52:42.500Z,90.82
2022-12-11T23:55:11.999Z,89.45
2022-12-11T23:57:39.485Z,102.50
